La Paz, Honduras
Current Conditions -  °F | °C
As of 11:00 AM on Saturday 25 Oct 2014 (Local Time) from MHTG Reporting Station
Broken Clouds Broken Clouds  
Wind Chill: 75°   Ceiling: 2800
Heat Index: 75°   Visibility: 6mi
Dew Point: 68°   Wind: 9mph
Humidity: 78%   Direction: 350°N
Pressure: 30.09"   Gusts: NA
Location:  14.2°N, 87.4°W
Report Text: MHTG 251700Z 35008KT 9999 BKN028 BKN080 24/20 Q1019 A3009NOSIG
Loading
Personal Weather Stations






























Interactive Weather Map
Tropical Storm Tracking
New forecast layout! Learn more

10-Day Weather Forecast

Advertisements
Track Severe Weather on mobile